Bloomington, Wisconsin
Current Conditions -  °F | °C
As of 12:15 AM on Sunday 21 Dec 2014 (Local Time) from KPDC Reporting Station
Haze Haze  
Wind Chill: 27°   Ceiling: 600
Heat Index: 32°   Visibility: 2.5mi
Dew Point: 30°   Wind: 5mph
Humidity: 92%   Direction: 110°ESE
Pressure: 30.16"   Gusts: NA
Location:  42.89°N, 90.92°W
Report Text: KPDC 210615Z AUTO 11004KT 2 1/2SM BR OVC006 00/M01 A3016 RMK AO2 T10011013
Loading
Personal Weather Stations






























Interactive Weather Map New forecast layout! Learn more

10-Day Weather Forecast

Advertisements
Track Severe Weather on mobile